Time;durP1;ratioP1;P1;durP2;ratioP2;P2;SDS_P1;SDS_P2;PMS_P1;PMS_P2;Temp;Humidity;BMP_temperature;BMP_pressure;BME280_temperature;BME280_humidity;BME280_pressure;Samples;Min_cycle;Max_cycle;Signal;HPM_P1;HPM_P2
2022/08/27 00:02:16;;;;;;;8.53;4.83;;;12.30;87.50;;;;;;4914752;29;20286;-67
2022/08/27 00:04:43;;;;;;;8.47;5.13;;;12.30;87.30;;;;;;4934637;29;20309;-67
2022/08/27 00:07:10;;;;;;;8.27;5.27;;;12.20;87.10;;;;;;4933525;29;20291;-67
2022/08/27 00:09:36;;;;;;;6.37;4.40;;;12.20;86.90;;;;;;4929197;29;20760;-67
2022/08/27 00:12:03;;;;;;;7.30;4.20;;;12.20;86.80;;;;;;4941434;29;20827;-67
2022/08/27 00:14:29;;;;;;;7.53;4.20;;;12.20;86.60;;;;;;4932869;28;20302;-67
2022/08/27 00:16:55;;;;;;;6.20;4.30;;;12.20;86.50;;;;;;4930958;29;20345;-67
2022/08/27 00:19:21;;;;;;;8.90;4.50;;;12.20;86.30;;;;;;4931290;29;20039;-67
2022/08/27 00:21:48;;;;;;;7.57;4.47;;;12.20;86.60;;;;;;4927684;29;20342;-67
2022/08/27 00:24:14;;;;;;;8.80;4.50;;;12.20;86.80;;;;;;4940136;29;20383;-67
2022/08/27 00:26:40;;;;;;;6.57;4.70;;;12.20;86.70;;;;;;4923623;28;20369;-67
2022/08/27 00:29:07;;;;;;;7.30;4.40;;;12.20;87.20;;;;;;4929340;29;20048;-67
2022/08/27 00:31:33;;;;;;;8.93;4.37;;;12.20;86.90;;;;;;4916125;29;21022;-67
2022/08/27 00:33:59;;;;;;;6.53;3.97;;;12.20;86.70;;;;;;4917469;29;20833;-67
2022/08/27 00:36:25;;;;;;;7.87;4.53;;;12.20;86.60;;;;;;4927929;28;20405;-67
2022/08/27 00:38:51;;;;;;;6.60;4.00;;;12.20;86.40;;;;;;4916470;29;20480;-67
2022/08/27 00:41:17;;;;;;;8.90;5.03;;;12.20;86.50;;;;;;4899709;29;20043;-67
2022/08/27 00:43:48;;;;;;;7.37;4.33;;;12.20;87.40;;;;;;4932200;29;20047;-67
2022/08/27 00:46:37;;;;;;;7.10;4.60;;;12.20;87.20;;;;;;4947598;28;20294;-67
2022/08/27 00:49:15;;;;;;;6.93;3.90;;;12.20;87.10;;;;;;4931427;29;20373;-67
2022/08/27 00:51:41;;;;;;;6.53;4.43;;;12.30;87.00;;;;;;4934850;29;20299;-67
2022/08/27 00:54:08;;;;;;;10.43;4.43;;;12.30;86.80;;;;;;4904355;29;20831;-67
2022/08/27 00:56:43;;;;;;;9.47;4.33;;;12.30;86.80;;;;;;4920630;29;20307;-67
2022/08/27 00:59:13;;;;;;;8.00;4.80;;;12.30;87.30;;;;;;4930803;29;20299;-67
2022/08/27 01:02:17;;;;;;;7.67;4.70;;;12.30;87.30;;;;;;4916700;29;20047;-67
2022/08/27 01:04:26;;;;;;;5.93;4.20;;;12.30;87.70;;;;;;4920886;29;21014;-67
2022/08/27 01:06:53;;;;;;;6.97;5.00;;;12.30;87.60;;;;;;4934252;29;20450;-67
2022/08/27 01:09:18;;;;;;;6.37;4.50;;;12.30;87.50;;;;;;4900936;28;20287;-68
2022/08/27 01:11:46;;;;;;;7.50;4.77;;;12.30;87.30;;;;;;4930822;29;20293;-67
2022/08/27 01:14:13;;;;;;;9.37;5.03;;;12.20;87.60;;;;;;4934281;29;20055;-67
2022/08/27 01:16:44;;;;;;;8.50;4.10;;;12.20;87.50;;;;;;4927716;29;20320;-67
2022/08/27 01:19:25;;;;;;;4.83;3.83;;;12.20;87.40;;;;;;4934378;28;20294;-67
2022/08/27 01:22:12;;;;;;;7.03;4.53;;;12.30;87.40;;;;;;4929630;29;20294;-67
2022/08/27 01:24:44;;;;;;;5.17;4.10;;;12.40;87.70;;;;;;4925673;29;20703;-67
2022/08/27 01:27:15;;;;;;;6.87;4.70;;;12.50;87.70;;;;;;4926377;28;20295;-67
2022/08/27 01:29:41;;;;;;;7.83;4.47;;;12.50;87.40;;;;;;4924749;29;20787;-67
2022/08/27 01:32:14;;;;;;;7.80;4.77;;;12.60;87.40;;;;;;4892773;29;20289;-67
2022/08/27 01:34:40;;;;;;;7.57;4.03;;;12.70;87.20;;;;;;4927181;29;20306;-67
2022/08/27 01:37:06;;;;;;;9.87;4.70;;;12.70;87.20;;;;;;4936214;29;20643;-67
2022/08/27 01:39:38;;;;;;;7.03;4.17;;;12.60;86.80;;;;;;4906441;28;20294;-67
2022/08/27 01:42:12;;;;;;;6.87;4.63;;;12.60;86.50;;;;;;4906268;28;20071;-67
2022/08/27 01:44:46;;;;;;;7.63;4.10;;;12.60;86.60;;;;;;4927121;29;20642;-67
2022/08/27 01:47:12;;;;;;;6.10;4.13;;;12.50;86.40;;;;;;4922102;29;20111;-67
2022/08/27 01:49:38;;;;;;;6.83;4.80;;;12.50;86.20;;;;;;4937489;29;20321;-67
2022/08/27 01:52:03;;;;;;;9.20;4.70;;;12.40;86.30;;;;;;4926432;28;20286;-67
2022/08/27 01:54:30;;;;;;;6.07;4.23;;;12.40;86.60;;;;;;4942007;29;20047;-67
2022/08/27 01:56:56;;;;;;;6.97;4.53;;;12.30;86.50;;;;;;4921232;29;20098;-67
2022/08/27 01:59:22;;;;;;;6.93;4.50;;;12.30;86.40;;;;;;4919551;28;20292;-67
2022/08/27 02:01:48;;;;;;;9.70;4.33;;;12.30;86.30;;;;;;4921439;29;20031;-67
2022/08/27 02:04:13;;;;;;;7.77;4.10;;;12.30;86.30;;;;;;4905879;28;20062;-67
2022/08/27 02:06:39;;;;;;;6.50;4.30;;;12.30;86.30;;;;;;4900397;29;20071;-67
2022/08/27 02:09:05;;;;;;;7.87;4.70;;;12.30;86.50;;;;;;4930963;28;20114;-67
2022/08/27 02:11:30;;;;;;;7.90;4.77;;;12.40;86.40;;;;;;4917845;29;20043;-67
2022/08/27 02:13:56;;;;;;;7.53;4.57;;;12.40;87.00;;;;;;4928026;28;20166;-67
2022/08/27 02:16:22;;;;;;;9.60;5.40;;;12.50;86.70;;;;;;4922181;29;20657;-67
2022/08/27 02:18:47;;;;;;;8.70;4.53;;;12.60;87.20;;;;;;4938253;28;20039;-67
2022/08/27 02:21:14;;;;;;;6.20;4.53;;;12.70;87.20;;;;;;4932196;29;20053;-67
2022/08/27 02:23:40;;;;;;;7.40;5.33;;;12.70;87.10;;;;;;4939805;28;20054;-67
2022/08/27 02:26:07;;;;;;;11.33;6.23;;;12.80;87.50;;;;;;4934072;29;20295;-67
2022/08/27 02:28:34;;;;;;;8.37;5.03;;;12.80;87.40;;;;;;4937354;28;20294;-67
2022/08/27 02:31:00;;;;;;;8.30;5.33;;;12.90;87.40;;;;;;4911689;29;20303;-67
2022/08/27 02:33:26;;;;;;;8.53;5.50;;;12.90;87.20;;;;;;4912975;29;20316;-67
2022/08/27 02:35:52;;;;;;;8.67;5.50;;;13.00;86.90;;;;;;4936120;29;20039;-67
2022/08/27 02:38:19;;;;;;;11.73;5.73;;;13.00;86.80;;;;;;4927427;28;20076;-67
2022/08/27 02:40:45;;;;;;;7.23;4.77;;;13.00;86.70;;;;;;4928432;29;20050;-67
2022/08/27 02:43:11;;;;;;;6.20;4.70;;;13.10;86.90;;;;;;4921005;28;20667;-67
2022/08/27 02:45:36;;;;;;;7.67;4.97;;;13.10;86.70;;;;;;4932981;29;20045;-67
2022/08/27 02:48:04;;;;;;;9.70;4.83;;;13.20;86.90;;;;;;4927997;28;20159;-67
2022/08/27 02:50:30;;;;;;;8.40;4.60;;;13.30;86.80;;;;;;4935336;29;20044;-67
2022/08/27 02:52:56;;;;;;;7.50;5.10;;;13.30;86.90;;;;;;4912299;28;20288;-67
2022/08/27 02:55:22;;;;;;;11.27;5.27;;;13.40;86.70;;;;;;4903063;29;20699;-67
2022/08/27 02:57:48;;;;;;;8.80;5.27;;;13.50;86.80;;;;;;4929562;28;20310;-67
2022/08/27 03:00:17;;;;;;;8.33;5.07;;;13.50;86.70;;;;;;4930393;29;20044;-67
2022/08/27 03:02:43;;;;;;;6.27;4.47;;;13.60;86.70;;;;;;4928838;29;20306;-67
2022/08/27 03:05:11;;;;;;;6.90;4.23;;;13.60;86.30;;;;;;4935394;29;20302;-67
2022/08/27 03:07:36;;;;;;;9.33;5.00;;;13.70;86.20;;;;;;4933771;28;20861;-67
2022/08/27 03:10:04;;;;;;;7.37;4.50;;;13.80;85.80;;;;;;4923075;29;20295;-67
2022/08/27 03:12:30;;;;;;;6.70;4.30;;;13.90;85.70;;;;;;4945168;28;20408;-67
2022/08/27 03:14:57;;;;;;;7.40;3.93;;;13.90;85.60;;;;;;4910178;29;21183;-67
2022/08/27 03:20:10;;;;;;;9.70;4.17;;;14.10;85.20;;;;;;4935484;29;20306;-67
2022/08/27 03:22:37;;;;;;;8.13;3.90;;;14.10;85.10;;;;;;4930962;29;20656;-67
2022/08/27 03:25:04;;;;;;;8.03;3.97;;;14.10;85.00;;;;;;4913959;29;20902;-67
2022/08/27 03:27:29;;;;;;;8.00;3.97;;;14.10;84.70;;;;;;4930705;29;20627;-67
2022/08/27 03:29:55;;;;;;;5.07;3.70;;;14.10;84.70;;;;;;4903336;29;20300;-68
2022/08/27 03:32:23;;;;;;;6.47;3.60;;;14.00;84.60;;;;;;4902347;29;20448;-67
2022/08/27 03:34:49;;;;;;;8.53;3.23;;;14.00;84.50;;;;;;4919287;29;20501;-67
2022/08/27 03:37:15;;;;;;;8.40;3.43;;;13.90;84.50;;;;;;4917047;29;20310;-67
2022/08/27 03:39:40;;;;;;;5.90;3.10;;;13.80;84.60;;;;;;4932212;29;20039;-67
2022/08/27 03:42:06;;;;;;;4.87;3.27;;;13.80;84.70;;;;;;4936625;29;20506;-67
2022/08/27 03:44:32;;;;;;;4.20;3.00;;;13.70;84.80;;;;;;4927439;29;20043;-68
2022/08/27 03:46:58;;;;;;;7.30;2.90;;;13.70;84.90;;;;;;4921129;29;20047;-67
2022/08/27 03:49:24;;;;;;;5.83;3.10;;;13.70;84.90;;;;;;4907415;29;20043;-67
2022/08/27 03:51:51;;;;;;;9.13;3.00;;;13.60;85.00;;;;;;4920202;29;20337;-67
2022/08/27 03:54:17;;;;;;;6.33;2.73;;;13.60;85.10;;;;;;4918904;29;20051;-67
2022/08/27 03:56:43;;;;;;;5.37;3.20;;;13.60;85.20;;;;;;4933448;29;20307;-67
2022/08/27 03:59:09;;;;;;;4.90;2.90;;;13.50;85.40;;;;;;4930878;29;20106;-68
2022/08/27 04:01:35;;;;;;;3.70;2.40;;;13.50;85.50;;;;;;4911042;28;20290;-67
2022/08/27 04:04:01;;;;;;;5.93;2.60;;;13.50;85.40;;;;;;4926811;29;20039;-67
2022/08/27 04:06:27;;;;;;;4.20;2.33;;;13.50;85.40;;;;;;4935407;29;20042;-67
2022/08/27 04:08:53;;;;;;;5.17;2.87;;;13.50;85.40;;;;;;4918730;29;20036;-67
2022/08/27 04:11:20;;;;;;;4.90;2.23;;;13.50;85.60;;;;;;4926363;29;20039;-67
2022/08/27 04:13:46;;;;;;;6.07;2.40;;;13.50;85.60;;;;;;4911800;29;20066;-67
2022/08/27 04:16:12;;;;;;;6.40;2.60;;;13.40;85.50;;;;;;4931374;29;20299;-68
2022/08/27 04:18:37;;;;;;;5.50;2.37;;;13.40;85.50;;;;;;4915756;29;20039;-67
2022/08/27 04:21:10;;;;;;;4.73;2.10;;;13.40;85.40;;;;;;4910029;28;20126;-67
2022/08/27 04:23:36;;;;;;;4.23;2.53;;;13.30;85.50;;;;;;4932667;28;20055;-67
2022/08/27 04:26:06;;;;;;;4.07;2.00;;;13.30;85.60;;;;;;4935937;29;20293;-67
2022/08/27 04:28:32;;;;;;;6.17;2.33;;;13.30;85.70;;;;;;4923996;28;20294;-67
2022/08/27 04:30:57;;;;;;;4.43;2.10;;;13.40;85.80;;;;;;4882609;29;20350;-67
2022/08/27 04:33:23;;;;;;;3.77;1.97;;;13.40;86.10;;;;;;4921284;28;20389;-68
2022/08/27 04:36:04;;;;;;;4.13;2.23;;;13.50;86.10;;;;;;4932438;29;20039;-68
2022/08/27 04:38:31;;;;;;;3.13;1.90;;;13.50;86.20;;;;;;4937528;28;20034;-68
2022/08/27 04:43:41;;;;;;;3.28;1.70;;;13.60;85.80;;;;;;4912739;29;21050;-68
2022/08/27 04:46:07;;;;;;;4.50;2.40;;;13.70;85.60;;;;;;4906688;29;20040;-68
2022/08/27 04:48:33;;;;;;;3.40;1.83;;;13.80;85.40;;;;;;4931570;28;20050;-68
2022/08/27 04:50:59;;;;;;;3.60;1.60;;;13.80;85.00;;;;;;4930195;29;20307;-68
2022/08/27 04:53:25;;;;;;;4.83;1.60;;;13.90;84.80;;;;;;4933116;29;20043;-68
2022/08/27 04:55:53;;;;;;;9.33;2.77;;;14.00;84.60;;;;;;4923856;29;20047;-68
2022/08/27 04:58:20;;;;;;;4.53;1.97;;;14.00;84.40;;;;;;4931259;29;20908;-68
2022/08/27 05:00:48;;;;;;;5.43;1.60;;;14.10;84.10;;;;;;4922295;29;20286;-68
2022/08/27 05:03:16;;;;;;;3.77;1.70;;;14.10;84.10;;;;;;4926615;28;20345;-67
2022/08/27 05:05:43;;;;;;;6.17;1.70;;;14.20;83.90;;;;;;4904602;29;20712;-67
2022/08/27 05:08:11;;;;;;;4.20;1.73;;;14.20;83.60;;;;;;4934965;29;20302;-68
2022/08/27 05:10:49;;;;;;;5.00;1.87;;;14.30;83.50;;;;;;4907406;29;20322;-67
2022/08/27 05:13:19;;;;;;;4.90;1.77;;;14.30;83.50;;;;;;4919081;29;20861;-68
2022/08/27 05:15:46;;;;;;;5.67;2.10;;;14.40;83.30;;;;;;4932374;28;20299;-67
2022/08/27 05:18:12;;;;;;;3.73;1.57;;;14.50;83.10;;;;;;4917839;29;20294;-67
2022/08/27 05:20:44;;;;;;;2.97;1.63;;;14.50;82.90;;;;;;4931575;29;20297;-67
2022/08/27 05:23:11;;;;;;;4.40;2.07;;;14.60;82.90;;;;;;4935680;29;20278;-67
2022/08/27 05:25:39;;;;;;;5.67;1.50;;;14.70;82.90;;;;;;4935598;29;20779;-67
2022/08/27 05:28:04;;;;;;;4.37;1.83;;;14.70;82.60;;;;;;4914789;29;20287;-67
2022/08/27 05:30:39;;;;;;;6.97;2.10;;;14.70;82.30;;;;;;4918722;29;20300;-68
2022/08/27 05:33:06;;;;;;;3.53;1.73;;;14.70;82.30;;;;;;4925955;29;20039;-68
2022/08/27 05:35:38;;;;;;;3.53;1.87;;;14.80;82.30;;;;;;4931819;29;20047;-68
2022/08/27 05:38:04;;;;;;;3.13;1.60;;;14.80;82.30;;;;;;4930477;29;20688;-68
2022/08/27 05:40:30;;;;;;;3.90;1.80;;;14.80;82.40;;;;;;4923952;29;20318;-68
2022/08/27 05:42:55;;;;;;;7.93;1.93;;;14.90;82.50;;;;;;4931069;29;20054;-68
2022/08/27 05:45:21;;;;;;;5.27;1.87;;;15.00;82.30;;;;;;4924860;29;20071;-68
2022/08/27 05:47:47;;;;;;;3.83;1.50;;;15.10;82.30;;;;;;4932291;29;20064;-68
2022/08/27 05:50:13;;;;;;;2.87;1.40;;;15.10;82.20;;;;;;4921882;29;20688;-68
2022/08/27 05:52:39;;;;;;;5.77;1.70;;;15.20;82.20;;;;;;4913160;29;20240;-68
2022/08/27 05:55:05;;;;;;;5.03;1.60;;;15.30;81.90;;;;;;4919030;29;20043;-68
2022/08/27 05:57:31;;;;;;;3.77;1.60;;;15.40;82.00;;;;;;4899955;29;20303;-68
2022/08/27 06:02:41;;;;;;;3.83;1.83;;;15.50;81.90;;;;;;4928484;29;20100;-68
2022/08/27 06:05:07;;;;;;;5.23;1.37;;;15.60;81.80;;;;;;4917728;29;20341;-68
2022/08/27 06:07:33;;;;;;;3.77;1.73;;;15.60;81.70;;;;;;4915239;28;20062;-68
2022/08/27 06:09:59;;;;;;;5.07;1.83;;;15.70;81.60;;;;;;4902762;29;20043;-68
2022/08/27 06:12:25;;;;;;;4.47;1.60;;;15.80;81.60;;;;;;4931304;28;20442;-68
2022/08/27 06:14:51;;;;;;;3.30;1.50;;;15.90;81.60;;;;;;4922032;29;20043;-68
2022/08/27 06:17:16;;;;;;;6.97;1.80;;;16.00;81.50;;;;;;4917485;29;20031;-68
2022/08/27 06:19:44;;;;;;;4.67;2.03;;;16.10;81.40;;;;;;4922451;28;20086;-68
2022/08/27 06:22:10;;;;;;;4.40;1.87;;;16.20;81.30;;;;;;4935273;28;20087;-68
2022/08/27 06:24:40;;;;;;;2.50;1.40;;;16.30;81.20;;;;;;4907719;29;20313;-67
2022/08/27 06:27:10;;;;;;;5.77;1.40;;;16.40;81.20;;;;;;4950491;28;20298;-68
2022/08/27 06:29:35;;;;;;;3.90;1.90;;;16.50;81.10;;;;;;4934612;29;20293;-68
2022/08/27 06:32:01;;;;;;;4.43;1.53;;;16.60;80.90;;;;;;4920252;28;20275;-68
2022/08/27 06:34:27;;;;;;;4.93;1.90;;;16.60;80.80;;;;;;4919807;29;20390;-68
2022/08/27 06:36:53;;;;;;;3.87;1.47;;;16.70;80.70;;;;;;4920355;28;20289;-68
2022/08/27 06:39:19;;;;;;;6.63;1.50;;;16.80;80.60;;;;;;4899912;28;20527;-68
2022/08/27 06:41:45;;;;;;;3.20;1.50;;;16.90;80.40;;;;;;4935815;28;20063;-68
2022/08/27 06:44:12;;;;;;;4.77;1.50;;;16.90;80.40;;;;;;4886358;29;20381;-68
2022/08/27 06:46:38;;;;;;;5.13;1.40;;;17.00;80.30;;;;;;4917767;28;20043;-68
2022/08/27 06:49:03;;;;;;;5.77;1.60;;;17.10;80.40;;;;;;4933622;29;20297;-68
2022/08/27 06:51:32;;;;;;;5.70;1.70;;;17.20;80.20;;;;;;4935036;28;20069;-68
2022/08/27 06:54:01;;;;;;;5.30;1.57;;;17.30;80.00;;;;;;4918110;28;20134;-68
2022/08/27 06:56:27;;;;;;;7.23;1.67;;;17.40;79.60;;;;;;4934800;28;20287;-68
2022/08/27 06:58:56;;;;;;;6.83;1.37;;;17.50;79.30;;;;;;4932766;29;20370;-68
2022/08/27 07:01:28;;;;;;;4.70;1.00;;;17.60;78.70;;;;;;4939036;28;20332;-68
2022/08/27 07:03:56;;;;;;;4.80;0.93;;;17.60;78.10;;;;;;4922957;28;20290;-68
2022/08/27 07:06:22;;;;;;;5.17;1.77;;;17.70;77.80;;;;;;4931004;28;20645;-68
2022/08/27 07:08:48;;;;;;;6.40;0.80;;;17.60;77.30;;;;;;4918733;29;20294;-68
2022/08/27 07:11:14;;;;;;;3.67;1.10;;;17.60;77.00;;;;;;4918007;28;20310;-67
2022/08/27 07:13:41;;;;;;;7.97;1.50;;;17.60;76.70;;;;;;4935612;28;20771;-67
2022/08/27 07:16:10;;;;;;;4.73;1.07;;;17.60;76.50;;;;;;4920572;28;20338;-67
2022/08/27 07:18:37;;;;;;;6.40;1.03;;;17.60;76.10;;;;;;4929681;28;21075;-68
2022/08/27 07:21:03;;;;;;;4.60;1.00;;;17.70;75.40;;;;;;4915436;28;20299;-66
2022/08/27 07:23:34;;;;;;;5.20;1.27;;;17.80;74.40;;;;;;4932576;29;20382;-66
2022/08/27 07:26:00;;;;;;;7.30;1.47;;;17.90;74.50;;;;;;4928774;29;20343;-66
2022/08/27 07:28:27;;;;;;;5.73;0.77;;;18.00;74.10;;;;;;4925622;28;20402;-66
2022/08/27 07:30:53;;;;;;;4.97;0.80;;;18.20;73.70;;;;;;4930551;29;20284;-66
2022/08/27 07:33:19;;;;;;;6.60;1.30;;;18.20;72.90;;;;;;4930842;28;20301;-66
2022/08/27 07:35:47;;;;;;;3.97;0.93;;;18.30;72.70;;;;;;4907845;29;20349;-66
2022/08/27 07:38:14;;;;;;;3.13;0.70;;;18.30;72.70;;;;;;4919425;28;20775;-66
2022/08/27 07:40:39;;;;;;;4.67;0.77;;;18.50;72.50;;;;;;4925845;29;20287;-66
2022/08/27 07:45:54;;;;;;;4.45;0.60;;;18.90;72.50;;;;;;4908545;29;20051;-66
2022/08/27 07:48:22;;;;;;;4.33;0.97;;;19.10;71.30;;;;;;4917097;29;20070;-66
2022/08/27 07:50:49;;;;;;;3.13;0.70;;;19.40;70.50;;;;;;4932826;28;20287;-66
2022/08/27 07:53:14;;;;;;;4.77;0.70;;;19.60;70.20;;;;;;4881851;29;20044;-66
2022/08/27 07:55:40;;;;;;;4.67;0.70;;;20.00;68.70;;;;;;4916756;28;20043;-66
2022/08/27 07:58:06;;;;;;;5.03;0.90;;;20.30;68.30;;;;;;4916774;29;20094;-66
2022/08/27 08:00:33;;;;;;;4.40;0.60;;;20.50;65.40;;;;;;4916336;29;20086;-68
2022/08/27 08:02:59;;;;;;;3.07;0.43;;;20.70;65.00;;;;;;4919090;29;20039;-67
2022/08/27 08:05:26;;;;;;;2.87;0.50;;;20.90;63.90;;;;;;4930098;29;20043;-66
2022/08/27 08:07:51;;;;;;;4.87;0.60;;;21.00;61.70;;;;;;4932987;29;20492;-66
2022/08/27 08:10:19;;;;;;;6.70;0.70;;;21.20;61.90;;;;;;4914258;29;20031;-66
2022/08/27 08:12:45;;;;;;;5.97;0.93;;;21.30;61.10;;;;;;4914873;28;20051;-67
2022/08/27 08:15:11;;;;;;;4.60;0.67;;;21.20;59.30;;;;;;4911704;28;20901;-67
2022/08/27 08:17:37;;;;;;;3.57;1.33;;;21.10;60.00;;;;;;4896893;28;20038;-66
2022/08/27 08:20:06;;;;;;;6.60;0.97;;;20.90;60.00;;;;;;4909776;29;20107;-68
2022/08/27 08:22:31;;;;;;;4.43;0.57;;;20.80;60.00;;;;;;4922784;28;20042;-67
2022/08/27 08:24:57;;;;;;;3.97;0.80;;;20.60;60.60;;;;;;4921449;28;20047;-67
2022/08/27 08:27:23;;;;;;;4.27;0.60;;;20.60;61.00;;;;;;4938256;28;20047;-67
2022/08/27 08:29:49;;;;;;;3.57;0.33;;;20.50;61.60;;;;;;4914951;28;20084;-68
2022/08/27 08:32:15;;;;;;;4.13;0.50;;;20.40;61.90;;;;;;4917668;28;20167;-68
2022/08/27 08:34:41;;;;;;;4.33;0.50;;;20.40;61.80;;;;;;4935053;28;20223;-68
2022/08/27 08:37:07;;;;;;;5.33;1.00;;;20.30;62.10;;;;;;4913285;28;20309;-69
2022/08/27 08:39:35;;;;;;;3.40;0.40;;;20.30;61.80;;;;;;4914160;28;20039;-67
2022/08/27 08:42:03;;;;;;;2.17;0.30;;;20.30;60.70;;;;;;4913654;28;20046;-67
2022/08/27 08:44:52;;;;;;;7.13;0.60;;;20.20;60.40;;;;;;4910824;29;20044;-67
2022/08/27 08:47:30;;;;;;;4.90;0.60;;;20.00;60.90;;;;;;4917629;29;20039;-67
2022/08/27 08:50:05;;;;;;;4.50;0.50;;;20.00;61.70;;;;;;4932784;28;20039;-67
2022/08/27 08:52:34;;;;;;;5.93;0.90;;;19.90;61.40;;;;;;4914110;29;20058;-66
2022/08/27 08:55:10;;;;;;;3.47;0.77;;;19.80;61.90;;;;;;4909120;29;20047;-68
2022/08/27 08:57:59;;;;;;;3.97;0.63;;;20.00;61.70;;;;;;4932446;29;20059;-67
2022/08/27 09:00:24;;;;;;;3.80;0.70;;;20.30;61.00;;;;;;4914928;29;20039;-67
2022/08/27 09:02:53;;;;;;;7.77;0.50;;;20.70;60.50;;;;;;4913567;28;20053;-66
2022/08/27 09:05:21;;;;;;;4.13;0.60;;;21.00;59.80;;;;;;4894297;29;20047;-68
2022/08/27 09:08:16;;;;;;;5.40;0.93;;;21.00;59.20;;;;;;4909693;28;20050;-67
2022/08/27 09:10:54;;;;;;;5.05;0.70;;;20.90;59.50;;;;;;4930487;28;20071;-67
2022/08/27 09:13:25;;;;;;;5.93;0.57;;;20.90;59.80;;;;;;4932528;29;20105;-67
2022/08/27 09:15:56;;;;;;;3.20;0.50;;;20.90;59.90;;;;;;4919495;28;20040;-67
2022/08/27 09:18:23;;;;;;;2.90;0.50;;;20.90;60.30;;;;;;4926851;29;20039;-68
2022/08/27 09:20:54;;;;;;;5.27;0.57;;;20.90;60.30;;;;;;4929808;29;20032;-68
2022/08/27 09:23:35;;;;;;;5.03;0.60;;;20.80;59.60;;;;;;4932731;29;20115;-68
2022/08/27 09:26:01;;;;;;;3.30;0.40;;;20.80;59.40;;;;;;4923728;29;20488;-67
2022/08/27 09:31:20;;;;;;;3.07;0.50;;;20.80;60.20;;;;;;4915679;29;20669;-66
2022/08/27 09:33:46;;;;;;;4.10;0.73;;;20.80;59.80;;;;;;4930280;29;20047;-67
2022/08/27 09:36:15;;;;;;;2.93;0.40;;;20.90;60.80;;;;;;4920304;29;20510;-67
2022/08/27 09:38:52;;;;;;;3.27;0.50;;;21.20;60.50;;;;;;4933361;28;20077;-67
2022/08/27 09:41:24;;;;;;;3.90;0.50;;;21.40;59.40;;;;;;4915456;29;20042;-67
2022/08/27 09:44:01;;;;;;;3.93;0.50;;;21.60;59.40;;;;;;4937155;29;20047;-67
2022/08/27 09:46:28;;;;;;;3.30;0.57;;;21.90;58.40;;;;;;4958604;28;20114;-67
2022/08/27 09:48:53;;;;;;;4.20;0.93;;;21.90;58.00;;;;;;4918544;29;20057;-66
2022/08/27 09:51:24;;;;;;;9.17;1.37;;;21.80;57.40;;;;;;4927746;28;20042;-67
2022/08/27 09:54:09;;;;;;;2.57;0.30;;;21.60;57.60;;;;;;4931928;28;20044;-66
2022/08/27 09:56:38;;;;;;;7.05;0.70;;;21.50;58.10;;;;;;4936828;29;20062;-67
2022/08/27 09:59:29;;;;;;;3.47;0.53;;;21.30;58.90;;;;;;4943951;28;20471;-68
2022/08/27 10:02:03;;;;;;;3.30;0.43;;;21.30;58.90;;;;;;4935849;29;20293;-68
2022/08/27 10:04:51;;;;;;;5.40;0.60;;;21.30;59.40;;;;;;4935487;29;20563;-68
2022/08/27 10:07:28;;;;;;;4.83;0.97;;;21.20;59.20;;;;;;4925353;29;20043;-66
2022/08/27 10:10:07;;;;;;;5.77;0.53;;;21.30;58.50;;;;;;4935260;29;20126;-67
2022/08/27 10:12:53;;;;;;;5.03;0.50;;;21.30;58.50;;;;;;4933399;29;21072;-67
2022/08/27 10:15:20;;;;;;;3.57;0.73;;;21.30;58.40;;;;;;4932314;29;20044;-66
2022/08/27 10:18:10;;;;;;;6.00;0.40;;;21.30;58.50;;;;;;4918101;28;20039;-66
2022/08/27 10:20:50;;;;;;;2.93;0.33;;;21.30;58.50;;;;;;4930320;28;20047;-67
2022/08/27 10:23:32;;;;;;;5.87;0.43;;;21.30;57.90;;;;;;4933964;29;20050;-67
2022/08/27 10:26:08;;;;;;;3.37;0.40;;;21.40;57.50;;;;;;4930058;28;20038;-68
2022/08/27 10:28:45;;;;;;;3.70;0.23;;;21.40;57.20;;;;;;4937949;29;20348;-68
2022/08/27 10:31:34;;;;;;;4.07;0.50;;;21.40;57.40;;;;;;4938698;28;20603;-66
2022/08/27 10:34:31;;;;;;;4.47;0.33;;;21.50;56.00;;;;;;4936069;28;20459;-66
2022/08/27 10:37:12;;;;;;;2.73;0.20;;;21.90;54.40;;;;;;4921160;28;20039;-67
2022/08/27 10:40:16;;;;;;;3.20;0.50;;;22.20;54.20;;;;;;4924579;28;20121;-67
2022/08/27 10:43:10;;;;;;;4.47;0.30;;;22.60;52.90;;;;;;4919509;29;20686;-67
2022/08/27 10:46:02;;;;;;;3.77;0.40;;;23.00;51.60;;;;;;4929620;28;20619;-67
2022/08/27 10:48:36;;;;;;;4.50;0.30;;;23.20;51.40;;;;;;4915967;28;20075;-67
2022/08/27 10:51:18;;;;;;;2.90;0.38;;;23.20;53.50;;;;;;4915447;29;20405;-67
2022/08/27 10:53:55;;;;;;;3.07;0.40;;;22.90;54.00;;;;;;4933597;28;20082;-67
2022/08/27 10:56:45;;;;;;;3.67;0.50;;;22.70;54.10;;;;;;4916508;28;20078;-67
2022/08/27 10:59:20;;;;;;;6.37;0.63;;;22.70;54.90;;;;;;4933850;28;20058;-67
2022/08/27 11:02:07;;;;;;;3.80;0.53;;;22.50;55.70;;;;;;4917241;28;20036;-66
2022/08/27 11:04:38;;;;;;;3.37;0.67;;;22.40;55.60;;;;;;4934788;28;20039;-66
2022/08/27 11:07:21;;;;;;;5.57;0.60;;;22.30;56.30;;;;;;4936543;28;20432;-68
2022/08/27 11:09:57;;;;;;;3.17;0.53;;;22.30;56.70;;;;;;4935520;29;20081;-67
2022/08/27 11:12:35;;;;;;;4.87;0.93;;;22.30;56.70;;;;;;4917487;28;20054;-68
2022/08/27 11:15:18;;;;;;;4.90;0.60;;;22.20;57.00;;;;;;4930747;29;20047;-67
2022/08/27 11:17:59;;;;;;;5.07;1.37;;;22.10;57.10;;;;;;4931757;29;20040;-67
2022/08/27 11:20:33;;;;;;;4.13;0.70;;;22.00;57.40;;;;;;4931385;28;20036;-67
2022/08/27 11:23:14;;;;;;;6.13;0.45;;;22.00;57.10;;;;;;4934601;29;20851;-67
2022/08/27 11:25:57;;;;;;;3.70;0.40;;;21.90;56.30;;;;;;4914478;28;20446;-66
2022/08/27 11:28:30;;;;;;;5.30;1.00;;;21.90;56.20;;;;;;4931477;29;20114;-66
2022/08/27 11:31:22;;;;;;;5.67;0.40;;;22.20;56.10;;;;;;4945420;29;20047;-66
2022/08/27 11:34:09;;;;;;;5.37;1.03;;;22.70;55.10;;;;;;4916747;28;20059;-67
2022/08/27 11:36:57;;;;;;;3.17;0.30;;;23.20;55.00;;;;;;4933218;29;20047;-67
2022/08/27 11:39:36;;;;;;;4.40;0.30;;;23.40;52.90;;;;;;4927988;28;20138;-67
2022/08/27 11:42:07;;;;;;;2.83;0.50;;;23.50;52.70;;;;;;4933317;29;20039;-67
2022/08/27 11:44:43;;;;;;;2.43;0.33;;;23.50;52.70;;;;;;4929895;29;20051;-67
2022/08/27 11:47:29;;;;;;;3.87;0.30;;;23.40;52.10;;;;;;4934429;28;20038;-67
2022/08/27 11:50:00;;;;;;;4.70;0.60;;;23.10;52.40;;;;;;4918061;28;20051;-67
2022/08/27 11:52:31;;;;;;;2.27;0.20;;;23.00;53.30;;;;;;4924036;29;20039;-67
2022/08/27 11:55:18;;;;;;;3.33;0.30;;;23.00;53.40;;;;;;4925990;29;20063;-67
2022/08/27 11:57:45;;;;;;;3.70;0.37;;;23.30;52.50;;;;;;4916905;28;20055;-67
2022/08/27 12:00:22;;;;;;;4.27;0.30;;;23.50;52.20;;;;;;4915397;29;20085;-67
2022/08/27 12:02:58;;;;;;;3.20;0.63;;;23.70;51.40;;;;;;4929755;28;20035;-67
2022/08/27 12:05:35;;;;;;;3.20;0.30;;;23.80;50.80;;;;;;4927942;29;20327;-67
2022/08/27 12:08:11;;;;;;;3.37;0.40;;;23.80;50.40;;;;;;4933074;29;20043;-67
2022/08/27 12:10:59;;;;;;;2.53;0.30;;;23.80;50.40;;;;;;4925866;28;20110;-67
2022/08/27 12:13:43;;;;;;;5.83;0.40;;;24.00;50.00;;;;;;4936941;28;20043;-68
2022/08/27 12:16:27;;;;;;;3.10;0.63;;;24.00;49.80;;;;;;4931519;29;20499;-68
2022/08/27 12:18:56;;;;;;;4.73;0.80;;;23.90;49.10;;;;;;4932591;28;20826;-67
2022/08/27 12:21:43;;;;;;;3.20;0.20;;;23.50;49.20;;;;;;4936026;29;20055;-68
2022/08/27 12:24:44;;;;;;;3.30;0.37;;;23.20;49.40;;;;;;4916809;29;20067;-67
2022/08/27 12:27:30;;;;;;;4.37;0.40;;;23.10;50.30;;;;;;4933785;29;20046;-68
2022/08/27 12:30:03;;;;;;;2.50;0.30;;;23.30;50.00;;;;;;4909081;29;20047;-67
2022/08/27 12:32:39;;;;;;;2.93;0.40;;;23.20;49.40;;;;;;4915021;29;20171;-67
2022/08/27 12:35:28;;;;;;;7.20;0.50;;;23.10;49.40;;;;;;4921234;28;20043;-67
2022/08/27 12:38:10;;;;;;;4.27;0.40;;;23.10;49.60;;;;;;4910898;29;20048;-67
2022/08/27 12:40:54;;;;;;;4.13;0.47;;;23.30;49.20;;;;;;4930766;29;20089;-67
2022/08/27 12:43:26;;;;;;;2.00;0.40;;;23.60;49.70;;;;;;4924016;28;20051;-68
2022/08/27 12:45:56;;;;;;;3.73;0.23;;;23.80;49.00;;;;;;4932476;29;20031;-68
2022/08/27 12:48:26;;;;;;;2.10;0.30;;;23.80;48.50;;;;;;4911926;29;20043;-68
2022/08/27 12:50:55;;;;;;;2.67;0.40;;;23.40;48.80;;;;;;4917232;29;20047;-67
2022/08/27 12:53:40;;;;;;;3.40;0.30;;;23.10;49.30;;;;;;4919871;29;20047;-69
2022/08/27 12:56:24;;;;;;;3.40;0.30;;;23.20;50.00;;;;;;4923314;29;20530;-67
2022/08/27 12:59:22;;;;;;;2.60;0.30;;;23.60;49.00;;;;;;4911009;29;20055;-67
2022/08/27 13:01:57;;;;;;;5.50;1.10;;;23.90;49.00;;;;;;4913636;28;20032;-68
2022/08/27 13:04:29;;;;;;;3.90;0.70;;;23.90;49.40;;;;;;4927401;28;20058;-69
2022/08/27 13:06:55;;;;;;;2.63;0.70;;;23.80;49.70;;;;;;4916796;29;20734;-69
2022/08/27 13:09:47;;;;;;;3.90;0.90;;;23.70;50.70;;;;;;4926229;28;20050;-68
2022/08/27 13:12:18;;;;;;;3.73;1.07;;;23.70;50.50;;;;;;4922555;28;20062;-68
2022/08/27 13:14:44;;;;;;;6.13;1.10;;;23.60;50.80;;;;;;4908466;29;20051;-67
2022/08/27 13:17:15;;;;;;;3.60;0.80;;;23.40;51.00;;;;;;4917809;28;20031;-68
2022/08/27 13:19:50;;;;;;;3.27;0.63;;;23.30;51.30;;;;;;4919711;29;20520;-69